Time,TemperatureF,DewpointF,PressureIn,WindDirection,WindDirectionDegrees,WindSpeedMPH,WindSpeedGustMPH,Humidity,HourlyPrecipIn,Conditions,Clouds,dailyrainin,SoftwareType,DateUTC
2013-03-26 00:00:00,26.6,26.1,29.64,NE,45,5.0,13.4,98,0.00,,,0.00,VWS V14.01,2013-03-26 04:00:00,
2013-03-26 00:01:00,26.6,26.1,29.64,ENE,65,10.3,13.4,98,0.00,,,0.00,VWS V14.01,2013-03-26 04:01:00,
2013-03-26 00:02:00,26.7,26.2,29.64,NNE,24,4.7,13.4,98,0.00,,,0.00,VWS V14.01,2013-03-26 04:02:00,
2013-03-26 00:03:00,26.7,26.2,29.64,NE,53,0.0,13.4,98,0.00,,,0.00,VWS V14.01,2013-03-26 04:03:00,
2013-03-26 00:04:00,26.9,26.4,29.66,North,6,0.0,4.8,98,0.00,,,0.00,VWS V14.01,2013-03-26 04:04:00,
2013-03-26 00:05:00,26.9,26.4,29.66,North,6,0.0,4.8,98,0.00,,,0.00,VWS V14.01,2013-03-26 04:05:00,
2013-03-26 00:06:00,26.9,26.4,29.66,ENE,76,5.4,11.0,98,0.00,,,0.00,VWS V14.01,2013-03-26 04:06:00,
2013-03-26 00:07:00,26.9,26.4,29.66,NNE,13,0.0,11.0,98,0.00,,,0.00,VWS V14.01,2013-03-26 04:07:00,
2013-03-26 00:08:00,26.8,26.3,29.65,NE,46,3.7,17.0,98,0.00,,,0.00,VWS V14.01,2013-03-26 04:08:00,
2013-03-26 00:09:00,26.9,26.4,29.66,NNE,13,0.0,11.0,98,0.00,,,0.00,VWS V14.01,2013-03-26 04:09:00,
2013-03-26 00:10:00,26.9,26.4,29.66,NE,51,6.3,11.0,98,0.00,,,0.00,VWS V14.01,2013-03-26 04:10:00,
2013-03-26 00:11:00,26.9,26.4,29.66,NNE,31,8.2,11.0,98,0.00,,,0.00,VWS V14.01,2013-03-26 04:11:00,
2013-03-26 00:12:00,27.0,26.5,29.66,East,87,0.0,11.0,98,0.00,,,0.00,VWS V14.01,2013-03-26 04:12:00,
2013-03-26 00:13:00,26.7,26.2,29.65,North,350,5.2,17.0,98,0.00,,,0.00,VWS V14.01,2013-03-26 04:13:00,
2013-03-26 00:14:00,27.0,26.5,29.66,NE,52,0.0,11.0,98,0.00,,,0.00,VWS V14.01,2013-03-26 04:14:00,
2013-03-26 00:15:00,27.0,26.4,29.66,NE,52,0.0,11.0,98,0.00,,,0.00,VWS V14.01,2013-03-26 04:15:00,
2013-03-26 00:16:00,27.0,26.4,29.66,NE,52,0.0,11.0,98,0.00,,,0.00,VWS V14.01,2013-03-26 04:16:00,
2013-03-26 00:17:00,26.9,26.3,29.66,NE,52,0.0,11.0,98,0.00,,,0.00,VWS V14.01,2013-03-26 04:17:00,
2013-03-26 00:18:00,26.7,26.2,29.65,NNW,335,6.9,17.0,98,0.00,,,0.00,VWS V14.01,2013-03-26 04:18:00,
2013-03-26 00:19:00,27.0,26.4,29.66,ESE,108,0.0,11.0,98,0.00,,,0.00,VWS V14.01,2013-03-26 04:19:00,
2013-03-26 00:20:00,27.0,26.4,29.66,ESE,108,0.0,11.0,98,0.00,,,0.00,VWS V14.01,2013-03-26 04:20:00,
2013-03-26 00:21:00,27.0,26.4,29.66,NNE,25,5.4,11.0,98,0.00,,,0.00,VWS V14.01,2013-03-26 04:21:00,
2013-03-26 00:22:00,27.1,26.5,29.66,NW,319,0.7,19.0,98,0.00,,,0.00,VWS V14.01,2013-03-26 04:22:00,
2013-03-26 00:23:00,27.1,26.5,29.66,NNE,15,9.7,19.0,98,0.00,,,0.00,VWS V14.01,2013-03-26 04:23:00,
2013-03-26 00:24:00,26.7,26.2,29.65,SSE,148,15.1,20.9,98,0.00,,,0.00,VWS V14.01,2013-03-26 04:24:00,
2013-03-26 00:25:00,27.1,26.5,29.66,NE,49,3.2,19.0,97,0.00,,,0.00,VWS V14.01,2013-03-26 04:25:00,
2013-03-26 00:26:00,27.0,26.4,29.66,NE,49,0.0,19.0,97,0.00,,,0.00,VWS V14.01,2013-03-26 04:26:00,
2013-03-26 00:27:00,27.0,26.4,29.67,NE,49,0.0,19.0,97,0.00,,,0.00,VWS V14.01,2013-03-26 04:27:00,
2013-03-26 00:28:00,27.1,26.5,29.67,NE,49,0.0,19.0,97,0.00,,,0.00,VWS V14.01,2013-03-26 04:28:00,
2013-03-26 00:29:00,26.7,26.2,29.66,NNE,28,0.0,20.9,98,0.00,,,0.00,VWS V14.01,2013-03-26 04:29:00,
2013-03-26 00:30:00,27.1,26.5,29.67,SSE,153,8.4,20.5,97,0.00,,,0.00,VWS V14.01,2013-03-26 04:30:00,
2013-03-26 00:31:00,27.1,26.5,29.67,SE,131,13.2,20.5,98,0.00,,,0.00,VWS V14.01,2013-03-26 04:31:00,
2013-03-26 00:32:00,27.1,26.5,29.67,NE,37,8.0,20.5,98,0.00,,,0.00,VWS V14.01,2013-03-26 04:32:00,
2013-03-26 00:33:00,27.0,26.4,29.67,East,86,5.4,20.5,98,0.00,,,0.00,VWS V14.01,2013-03-26 04:33:00,
2013-03-26 00:34:00,26.7,26.2,29.65,NE,53,1.7,20.9,98,0.00,,,0.00,VWS V14.01,2013-03-26 04:34:00,
2013-03-26 00:36:00,26.9,26.3,29.67,East,90,11.2,20.5,98,0.00,,,0.00,VWS V14.01,2013-03-26 04:36:00,
2013-03-26 00:37:00,27.0,26.4,29.67,NNE,15,3.0,20.5,98,0.00,,,0.00,VWS V14.01,2013-03-26 04:37:00,
2013-03-26 00:38:00,27.0,26.4,29.67,ENE,66,9.9,20.5,98,0.00,,,0.00,VWS V14.01,2013-03-26 04:38:00,
2013-03-26 00:39:00,26.8,26.3,29.66,NNE,24,0.0,20.9,98,0.00,,,0.00,VWS V14.01,2013-03-26 04:39:00,
2013-03-26 00:41:00,26.9,26.3,29.67,NNW,335,0.0,20.5,98,0.00,,,0.00,VWS V14.01,2013-03-26 04:41:00,
2013-03-26 00:42:00,27.0,26.4,29.67,NNW,335,0.0,20.5,98,0.00,,,0.00,VWS V14.01,2013-03-26 04:42:00,
2013-03-26 00:43:00,26.9,26.3,29.67,NNE,18,1.7,20.5,98,0.00,,,0.00,VWS V14.01,2013-03-26 04:43:00,
2013-03-26 00:44:00,26.8,26.3,29.66,North,3,0.0,20.9,98,0.00,,,0.00,VWS V14.01,2013-03-26 04:44:00,
2013-03-26 00:45:00,26.9,26.4,29.67,NE,42,0.0,20.5,98,0.00,,,0.00,VWS V14.01,2013-03-26 04:45:00,
2013-03-26 00:46:00,26.9,26.4,29.67,East,83,0.6,20.5,98,0.00,,,0.00,VWS V14.01,2013-03-26 04:46:00,
2013-03-26 00:47:00,26.9,26.4,29.67,East,90,11.0,20.5,98,0.00,,,0.00,VWS V14.01,2013-03-26 04:47:00,
2013-03-26 00:49:00,26.8,26.3,29.66,NNE,22,0.0,20.9,98,0.00,,,0.00,VWS V14.01,2013-03-26 04:49:00,
2013-03-26 00:50:00,26.9,26.4,29.67,NNE,21,4.1,20.5,98,0.00,,,0.00,VWS V14.01,2013-03-26 04:50:00,
2013-03-26 00:52:00,27.0,26.5,29.67,NNE,15,0.0,20.5,98,0.00,,,0.00,VWS V14.01,2013-03-26 04:52:00,
2013-03-26 00:53:00,26.8,26.3,29.67,NNE,15,0.0,20.5,98,0.00,,,0.00,VWS V14.01,2013-03-26 04:53:00,
2013-03-26 00:55:00,26.9,26.4,29.66,North,359,4.1,20.9,98,0.00,,,0.00,VWS V14.01,2013-03-26 04:55:00,
2013-03-26 01:29:00,27.0,26.4,29.67,North,349,1.3,20.5,98,0.00,,,0.00,VWS V14.01,2013-03-26 05:29:00,
2013-03-26 01:34:00,26.9,26.3,29.67,NNE,15,2.1,20.5,98,0.00,,,0.00,VWS V14.01,2013-03-26 05:34:00,
2013-03-26 01:40:00,26.9,26.4,29.67,ESE,104,5.2,20.5,98,0.00,,,0.00,VWS V14.01,2013-03-26 05:40:00,
2013-03-26 01:46:00,26.9,26.4,29.67,NNE,22,3.2,20.5,98,0.00,,,0.00,VWS V14.01,2013-03-26 05:46:00,
2013-03-26 01:51:00,26.9,26.4,29.67,NE,38,0.0,20.5,98,0.00,,,0.00,VWS V14.01,2013-03-26 05:51:00,
2013-03-26 01:57:00,26.9,26.4,29.68,NNE,21,0.0,0.0,98,0.00,,,0.00,VWS V14.01,2013-03-26 05:57:00,
2013-03-26 02:02:00,27.0,26.5,29.68,NNE,21,0.0,0.0,98,0.00,,,0.00,VWS V14.01,2013-03-26 06:02:00,
2013-03-26 02:07:00,27.1,26.6,29.68,NNW,346,0.0,14.9,98,0.00,,,0.00,VWS V14.01,2013-03-26 06:07:00,
2013-03-26 02:12:00,27.1,26.6,29.68,NNW,346,0.0,14.9,98,0.00,,,0.00,VWS V14.01,2013-03-26 06:12:00,
2013-03-26 02:17:00,27.2,26.6,29.69,North,6,0.0,17.9,98,0.00,,,0.00,VWS V14.01,2013-03-26 06:17:00,
2013-03-26 02:22:00,27.3,26.7,29.69,ENE,77,0.0,17.9,98,0.00,,,0.00,VWS V14.01,2013-03-26 06:22:00,
2013-03-26 02:27:00,27.3,26.7,29.69,ENE,77,0.0,17.9,98,0.00,,,0.00,VWS V14.01,2013-03-26 06:27:00,
2013-03-26 02:33:00,27.5,26.8,29.69,NNE,20,0.0,17.9,97,0.00,,,0.00,VWS V14.01,2013-03-26 06:33:00,
2013-03-26 02:38:00,27.4,26.7,29.69,NE,35,0.0,17.9,97,0.00,,,0.00,VWS V14.01,2013-03-26 06:38:00,
2013-03-26 02:43:00,27.3,26.7,29.69,SW,214,19.8,19.8,97,0.00,,,0.00,VWS V14.01,2013-03-26 06:43:00,
2013-03-26 02:48:00,27.2,26.6,29.69,South,181,0.0,28.3,97,0.00,,,0.00,VWS V14.01,2013-03-26 06:48:00,
2013-03-26 02:53:00,27.3,26.7,29.69,South,181,0.0,28.3,98,0.00,,,0.00,VWS V14.01,2013-03-26 06:53:00,
2013-03-26 02:58:00,27.3,26.7,29.69,ESE,108,0.0,12.7,98,0.00,,,0.00,VWS V14.01,2013-03-26 06:58:00,
2013-03-26 03:04:00,27.3,26.8,29.69,ENE,58,0.0,12.7,98,0.00,,,0.00,VWS V14.01,2013-03-26 07:04:00,
2013-03-26 03:09:00,27.2,26.7,29.69,East,83,22.2,23.3,98,0.00,,,0.00,VWS V14.01,2013-03-26 07:09:00,
2013-03-26 03:14:00,27.2,26.7,29.70,East,94,0.0,23.3,98,0.00,,,0.00,VWS V14.01,2013-03-26 07:14:00,
2013-03-26 03:19:00,27.1,26.6,29.70,NE,48,0.0,23.3,98,0.00,,,0.00,VWS V14.01,2013-03-26 07:19:00,
2013-03-26 03:24:00,27.2,26.7,29.70,SE,134,0.0,23.3,98,0.00,,,0.00,VWS V14.01,2013-03-26 07:24:00,
2013-03-26 03:29:00,27.2,26.7,29.70,East,83,0.0,23.3,98,0.00,,,0.00,VWS V14.01,2013-03-26 07:29:00,
2013-03-26 03:34:00,27.1,26.6,29.70,ESE,120,0.6,23.3,98,0.00,,,0.00,VWS V14.01,2013-03-26 07:34:00,
2013-03-26 03:40:00,26.9,26.4,29.70,ESE,107,0.0,23.3,98,0.00,,,0.00,VWS V14.01,2013-03-26 07:40:00,
2013-03-26 03:45:00,26.8,26.3,29.70,NE,38,0.0,27.4,98,0.00,,,0.00,VWS V14.01,2013-03-26 07:45:00,
2013-03-26 03:50:00,26.9,26.4,29.70,NE,39,0.0,27.4,98,0.00,,,0.00,VWS V14.01,2013-03-26 07:50:00,
2013-03-26 03:55:00,26.9,26.4,29.71,NE,34,0.0,27.4,98,0.00,,,0.00,VWS V14.01,2013-03-26 07:55:00,
2013-03-26 04:00:00,27.0,26.5,29.71,NNE,17,0.0,4.8,98,0.00,,,0.00,VWS V14.01,2013-03-26 08:00:00,
2013-03-26 04:05:00,26.9,26.3,29.71,ENE,70,0.0,28.5,98,0.00,,,0.00,VWS V14.01,2013-03-26 08:05:00,
2013-03-26 04:11:00,26.8,26.2,29.71,NE,46,0.0,28.5,98,0.00,,,0.00,VWS V14.01,2013-03-26 08:11:00,
2013-03-26 04:17:00,26.7,26.1,29.71,ENE,70,0.0,28.5,98,0.00,,,0.00,VWS V14.01,2013-03-26 08:17:00,
2013-03-26 04:22:00,27.0,26.3,29.71,ESE,117,0.0,28.5,97,0.00,,,0.00,VWS V14.01,2013-03-26 08:22:00,
2013-03-26 04:27:00,26.8,26.1,29.71,NNE,32,0.0,28.5,97,0.00,,,0.00,VWS V14.01,2013-03-26 08:27:00,
2013-03-26 04:32:00,26.7,26.1,29.71,ENE,65,0.0,28.5,97,0.00,,,0.00,VWS V14.01,2013-03-26 08:32:00,
2013-03-26 04:38:00,26.9,26.3,29.72,North,4,1.3,28.5,98,0.00,,,0.00,VWS V14.01,2013-03-26 08:38:00,
2013-03-26 04:43:00,26.7,26.2,29.72,ESE,108,0.0,28.5,98,0.00,,,0.00,VWS V14.01,2013-03-26 08:43:00,
2013-03-26 04:48:00,26.7,26.2,29.72,East,90,9.3,28.5,98,0.00,,,0.00,VWS V14.01,2013-03-26 08:48:00,
2013-03-26 04:53:00,26.6,26.1,29.72,ENE,59,0.0,28.5,98,0.00,,,0.00,VWS V14.01,2013-03-26 08:53:00,
2013-03-26 04:58:00,26.4,25.9,29.72,North,4,0.0,28.9,98,0.00,,,0.00,VWS V14.01,2013-03-26 08:58:00,
2013-03-26 05:03:00,26.3,25.8,29.72,NNW,346,17.1,28.9,98,0.00,,,0.00,VWS V14.01,2013-03-26 09:03:00,
2013-03-26 05:09:00,26.2,25.7,29.73,ENE,72,5.8,28.9,98,0.00,,,0.00,VWS V14.01,2013-03-26 09:09:00,
2013-03-26 05:14:00,26.2,25.7,29.73,ESE,111,0.0,28.9,98,0.00,,,0.00,VWS V14.01,2013-03-26 09:14:00,
2013-03-26 05:19:00,26.2,25.7,29.73,NNW,329,0.0,28.9,98,0.00,,,0.00,VWS V14.01,2013-03-26 09:19:00,
2013-03-26 05:24:00,26.2,25.7,29.73,SSE,159,0.0,28.9,98,0.00,,,0.00,VWS V14.01,2013-03-26 09:24:00,
2013-03-26 05:29:00,26.1,25.6,29.73,NNE,15,10.1,28.9,98,0.00,,,0.00,VWS V14.01,2013-03-26 09:29:00,
2013-03-26 05:35:00,26.1,25.6,29.73,ENE,77,10.3,28.9,98,0.00,,,0.00,VWS V14.01,2013-03-26 09:35:00,
2013-03-26 05:40:00,26.0,25.5,29.73,East,89,18.3,41.4,98,0.00,,,0.00,VWS V14.01,2013-03-26 09:40:00,
2013-03-26 05:45:00,26.0,25.5,29.73,NE,35,0.0,41.4,98,0.00,,,0.00,VWS V14.01,2013-03-26 09:45:00,
2013-03-26 05:50:00,25.8,25.2,29.73,NNE,30,0.0,41.4,98,0.00,,,0.00,VWS V14.01,2013-03-26 09:50:00,
2013-03-26 05:55:00,25.8,25.1,29.74,ESE,107,13.4,41.4,97,0.00,,,0.00,VWS V14.01,2013-03-26 09:55:00,
2013-03-26 06:00:00,25.8,25.0,29.74,NNE,28,0.0,33.0,97,0.00,,,0.00,VWS V14.01,2013-03-26 10:00:00,
2013-03-26 06:05:00,25.7,24.9,29.74,NNE,14,0.0,33.0,97,0.00,,,0.00,VWS V14.01,2013-03-26 10:05:00,
2013-03-26 06:10:00,25.5,24.6,29.74,East,89,3.4,33.0,96,0.00,,,0.00,VWS V14.01,2013-03-26 10:10:00,
2013-03-26 06:16:00,25.5,24.6,29.74,ENE,73,0.0,35.6,96,0.00,,,0.00,VWS V14.01,2013-03-26 10:16:00,
2013-03-26 06:21:00,25.3,24.4,29.75,ESE,117,14.7,35.6,96,0.00,,,0.00,VWS V14.01,2013-03-26 10:21:00,
2013-03-26 06:26:00,25.2,24.4,29.75,NE,34,8.8,35.6,97,0.00,,,0.00,VWS V14.01,2013-03-26 10:26:00,
2013-03-26 06:31:00,25.1,24.2,29.75,ESE,104,6.3,35.6,96,0.00,,,0.00,VWS V14.01,2013-03-26 10:31:00,
2013-03-26 06:37:00,25.1,24.2,29.76,ESE,111,10.3,35.6,96,0.00,,,0.00,VWS V14.01,2013-03-26 10:37:00,
2013-03-26 06:42:00,25.0,24.1,29.76,North,8,6.9,35.6,96,0.00,,,0.00,VWS V14.01,2013-03-26 10:42:00,
2013-03-26 06:47:00,24.8,23.9,29.76,ENE,58,18.1,35.6,96,0.00,,,0.00,VWS V14.01,2013-03-26 10:47:00,
2013-03-26 06:52:00,24.9,24.0,29.76,ESE,120,0.0,35.6,96,0.00,,,0.00,VWS V14.01,2013-03-26 10:52:00,
2013-03-26 06:57:00,24.9,24.0,29.77,East,82,22.7,22.7,96,0.00,,,0.00,VWS V14.01,2013-03-26 10:57:00,
2013-03-26 07:02:00,24.8,24.0,29.77,ESE,121,0.0,29.8,96,0.00,,,0.00,VWS V14.01,2013-03-26 11:02:00,
2013-03-26 07:08:00,24.7,23.9,29.77,East,97,5.8,48.7,97,0.00,,,0.00,VWS V14.01,2013-03-26 11:08:00,
2013-03-26 07:13:00,24.7,23.9,29.77,ENE,77,3.9,48.7,97,0.00,,,0.00,VWS V14.01,2013-03-26 11:13:00,
2013-03-26 07:18:00,24.8,24.0,29.78,NNE,27,7.5,48.7,97,0.00,,,0.00,VWS V14.01,2013-03-26 11:18:00,
2013-03-26 07:23:00,24.6,23.8,29.78,NNE,32,1.1,48.7,96,0.00,,,0.00,VWS V14.01,2013-03-26 11:23:00,
2013-03-26 07:29:00,24.6,23.8,29.78,ESE,112,20.9,48.7,97,0.00,,,0.00,VWS V14.01,2013-03-26 11:29:00,
2013-03-26 07:34:00,24.6,23.8,29.79,ENE,66,5.0,48.7,97,0.00,,,0.00,VWS V14.01,2013-03-26 11:34:00,
2013-03-26 07:39:00,24.6,23.8,29.79,ESE,111,13.0,48.7,97,0.00,,,0.00,VWS V14.01,2013-03-26 11:39:00,
2013-03-26 07:44:00,24.8,24.0,29.79,ENE,76,0.0,48.7,96,0.00,,,0.00,VWS V14.01,2013-03-26 11:44:00,
2013-03-26 07:49:00,24.9,24.0,29.79,North,359,0.0,48.7,96,0.00,,,0.00,VWS V14.01,2013-03-26 11:49:00,
2013-03-26 07:55:00,24.9,24.1,29.80,ENE,59,13.4,48.7,97,0.00,,,0.00,VWS V14.01,2013-03-26 11:55:00,
2013-03-26 08:00:00,25.1,24.3,29.80,East,80,0.0,11.2,97,0.00,,,0.00,VWS V14.01,2013-03-26 12:00:00,
2013-03-26 08:05:00,25.1,24.3,29.80,NNE,30,0.0,33.6,97,0.00,,,0.00,VWS V14.01,2013-03-26 12:05:00,
2013-03-26 08:10:00,25.2,24.3,29.80,North,359,14.7,33.6,96,0.00,,,0.00,VWS V14.01,2013-03-26 12:10:00,
2013-03-26 08:16:00,25.4,24.5,29.81,NNE,25,7.6,33.6,96,0.00,,,0.00,VWS V14.01,2013-03-26 12:16:00,
2013-03-26 08:21:00,25.4,24.5,29.81,NNE,27,17.1,33.6,96,0.00,,,0.00,VWS V14.01,2013-03-26 12:21:00,
2013-03-26 08:26:00,25.4,24.5,29.81,NE,48,0.0,33.6,96,0.00,,,0.00,VWS V14.01,2013-03-26 12:26:00,
2013-03-26 08:31:00,25.5,24.6,29.81,NE,37,0.0,33.6,96,0.00,,,0.00,VWS V14.01,2013-03-26 12:31:00,
2013-03-26 08:36:00,25.5,24.6,29.81,NE,34,0.0,33.6,96,0.00,,,0.00,VWS V14.01,2013-03-26 12:36:00,
2013-03-26 08:41:00,25.7,24.8,29.82,NNE,30,4.8,33.6,96,0.00,,,0.00,VWS V14.01,2013-03-26 12:41:00,
2013-03-26 08:47:00,25.8,24.9,29.82,SE,142,3.7,33.6,96,0.00,,,0.00,VWS V14.01,2013-03-26 12:47:00,
2013-03-26 08:52:00,25.8,24.9,29.82,East,89,0.0,33.6,96,0.00,,,0.00,VWS V14.01,2013-03-26 12:52:00,
2013-03-26 08:57:00,25.9,25.0,29.82,NNW,347,2.8,8.8,96,0.00,,,0.00,VWS V14.01,2013-03-26 12:57:00,
2013-03-26 09:03:00,26.1,25.2,29.82,North,359,0.0,20.7,96,0.00,,,0.00,VWS V14.01,2013-03-26 13:03:00,
2013-03-26 09:08:00,26.2,25.3,29.82,East,87,3.5,20.7,96,0.00,,,0.00,VWS V14.01,2013-03-26 13:08:00,
2013-03-26 09:13:00,26.1,25.1,29.83,SE,135,0.0,20.7,96,0.00,,,0.00,VWS V14.01,2013-03-26 13:13:00,
2013-03-26 09:18:00,26.4,25.4,29.83,NW,318,10.6,20.7,96,0.00,,,0.00,VWS V14.01,2013-03-26 13:18:00,
2013-03-26 09:23:00,26.3,25.4,29.83,NNW,340,0.0,23.1,96,0.00,,,0.00,VWS V14.01,2013-03-26 13:23:00,
2013-03-26 09:28:00,26.4,25.5,29.83,ENE,63,0.0,23.1,96,0.00,,,0.00,VWS V14.01,2013-03-26 13:28:00,
2013-03-26 09:33:00,26.3,25.4,29.83,NE,39,0.0,23.1,96,0.00,,,0.00,VWS V14.01,2013-03-26 13:33:00,
2013-03-26 09:39:00,26.5,25.6,29.83,ENE,59,9.1,23.1,96,0.00,,,0.00,VWS V14.01,2013-03-26 13:39:00,
2013-03-26 09:44:00,26.6,25.7,29.84,ENE,73,10.6,24.8,96,0.00,,,0.00,VWS V14.01,2013-03-26 13:44:00,
2013-03-26 09:49:00,26.6,25.7,29.84,ESE,120,0.0,24.8,96,0.00,,,0.00,VWS V14.01,2013-03-26 13:49:00,
2013-03-26 09:54:00,26.7,25.8,29.84,NE,34,0.0,24.8,96,0.00,,,0.00,VWS V14.01,2013-03-26 13:54:00,
2013-03-26 09:59:00,26.9,26.0,29.84,NW,308,0.0,11.6,96,0.00,,,0.00,VWS V14.01,2013-03-26 13:59:00,
2013-03-26 10:04:00,26.9,26.0,29.84,East,87,6.2,14.0,96,0.00,,,0.00,VWS V14.01,2013-03-26 14:04:00,
2013-03-26 10:09:00,26.9,26.0,29.85,NE,39,3.4,15.3,96,0.00,,,0.00,VWS V14.01,2013-03-26 14:09:00,
2013-03-26 10:14:00,27.2,26.3,29.85,WNW,284,0.0,22.6,96,0.00,,,0.00,VWS V14.01,2013-03-26 14:14:00,
2013-03-26 10:19:00,27.4,26.5,29.85,North,349,0.0,22.6,96,0.00,,,0.00,VWS V14.01,2013-03-26 14:19:00,
2013-03-26 10:25:00,27.4,26.4,29.85,NNE,27,12.7,22.6,96,0.00,,,0.00,VWS V14.01,2013-03-26 14:25:00,
2013-03-26 10:30:00,27.3,26.3,29.85,East,89,13.8,27.2,96,0.00,,,0.00,VWS V14.01,2013-03-26 14:30:00,
2013-03-26 10:35:00,27.5,26.5,29.85,NNE,18,0.0,28.3,96,0.00,,,0.00,VWS V14.01,2013-03-26 14:35:00,
2013-03-26 10:40:00,27.7,26.5,29.85,ENE,65,4.8,28.3,95,0.00,,,0.00,VWS V14.01,2013-03-26 14:40:00,
2013-03-26 10:45:00,27.6,26.5,29.86,ENE,68,8.6,39.3,96,0.00,,,0.00,VWS V14.01,2013-03-26 14:45:00,
2013-03-26 10:51:00,28.0,26.7,29.86,ESE,117,8.9,39.3,95,0.00,,,0.00,VWS V14.01,2013-03-26 14:51:00,
2013-03-26 10:56:00,28.0,26.7,29.86,North,6,11.9,29.1,95,0.00,,,0.00,VWS V14.01,2013-03-26 14:56:00,
2013-03-26 11:02:00,27.9,26.8,29.86,ENE,62,10.4,31.5,96,0.00,,,0.00,VWS V14.01,2013-03-26 15:02:00,
2013-03-26 11:07:00,28.1,27.0,29.86,NNE,25,0.0,31.5,96,0.00,,,0.00,VWS V14.01,2013-03-26 15:07:00,
2013-03-26 11:12:00,28.4,27.1,29.86,NNE,31,5.2,33.7,95,0.00,,,0.00,VWS V14.01,2013-03-26 15:12:00,
2013-03-26 11:17:00,28.7,27.4,29.86,East,80,7.6,33.7,95,0.00,,,0.00,VWS V14.01,2013-03-26 15:17:00,
2013-03-26 11:22:00,29.2,27.7,29.86,ESE,103,3.9,33.7,94,0.00,,,0.00,VWS V14.01,2013-03-26 15:22:00,
2013-03-26 11:27:00,29.7,27.8,29.86,East,91,8.6,33.7,93,0.00,,,0.00,VWS V14.01,2013-03-26 15:27:00,
2013-03-26 11:32:00,30.0,27.8,29.86,East,98,19.6,33.7,91,0.00,,,0.00,VWS V14.01,2013-03-26 15:32:00,
2013-03-26 11:38:00,30.2,27.6,29.86,North,359,6.0,33.7,90,0.00,,,0.00,VWS V14.01,2013-03-26 15:38:00,
2013-03-26 11:43:00,30.7,28.1,29.86,NNE,15,0.0,33.7,90,0.00,,,0.00,VWS V14.01,2013-03-26 15:43:00,
2013-03-26 11:48:00,30.8,28.0,29.86,East,79,0.0,44.0,89,0.00,,,0.00,VWS V14.01,2013-03-26 15:48:00,
2013-03-26 11:53:00,31.0,28.0,29.87,NNE,21,11.6,44.0,88,0.00,,,0.00,VWS V14.01,2013-03-26 15:53:00,
2013-03-26 11:58:00,30.9,28.0,29.86,North,8,9.7,24.2,89,0.00,,,0.00,VWS V14.01,2013-03-26 15:58:00,
2013-03-26 12:03:00,30.7,27.9,29.86,NNE,14,1.9,34.5,89,0.00,,,0.00,VWS V14.01,2013-03-26 16:03:00,
2013-03-26 12:08:00,31.1,28.1,29.86,ENE,70,22.0,36.2,88,0.00,,,0.00,VWS V14.01,2013-03-26 16:08:00,
2013-03-26 12:13:00,31.4,28.3,29.86,ENE,73,9.7,36.2,88,0.00,,,0.00,VWS V14.01,2013-03-26 16:13:00,
2013-03-26 12:19:00,31.6,28.2,29.87,North,1,13.2,55.7,87,0.00,,,0.00,VWS V14.01,2013-03-26 16:19:00,
2013-03-26 12:24:00,31.3,27.6,29.87,NNW,332,8.2,55.7,86,0.00,,,0.00,VWS V14.01,2013-03-26 16:24:00,
2013-03-26 12:29:00,31.6,28.0,29.86,North,1,9.5,55.7,86,0.00,,,0.00,VWS V14.01,2013-03-26 16:29:00,
2013-03-26 12:34:00,32.2,28.0,29.87,SSE,167,13.6,55.7,84,0.00,,,0.00,VWS V14.01,2013-03-26 16:34:00,
2013-03-26 12:39:00,32.6,28.4,29.87,NE,42,15.8,55.7,84,0.00,,,0.00,VWS V14.01,2013-03-26 16:39:00,
2013-03-26 12:45:00,32.4,28.1,29.87,East,94,25.9,55.7,84,0.00,,,0.00,VWS V14.01,2013-03-26 16:45:00,
2013-03-26 12:50:00,32.1,27.9,29.87,NNE,14,14.5,55.7,84,0.00,,,0.00,VWS V14.01,2013-03-26 16:50:00,
2013-03-26 12:55:00,32.2,28.6,29.87,ESE,121,28.5,55.7,86,0.00,,,0.00,VWS V14.01,2013-03-26 16:55:00,
2013-03-26 13:00:00,32.8,28.8,29.88,ENE,73,22.2,36.9,85,0.00,,,0.00,VWS V14.01,2013-03-26 17:00:00,
2013-03-26 13:05:00,32.7,28.3,29.88,NE,56,14.4,36.9,84,0.00,,,0.00,VWS V14.01,2013-03-26 17:05:00,
2013-03-26 13:11:00,32.3,28.3,29.88,NNE,13,5.8,36.9,85,0.00,,,0.00,VWS V14.01,2013-03-26 17:11:00,
2013-03-26 13:16:00,32.0,28.6,29.88,ENE,66,23.1,36.9,87,0.00,,,0.00,VWS V14.01,2013-03-26 17:16:00,
2013-03-26 13:22:00,31.6,28.3,29.88,NNE,25,11.9,36.9,87,0.00,,,0.00,VWS V14.01,2013-03-26 17:22:00,
2013-03-26 13:27:00,31.7,28.6,29.88,North,11,10.6,36.9,88,0.00,,,0.00,VWS V14.01,2013-03-26 17:27:00,
2013-03-26 13:32:00,31.9,28.2,29.88,NNW,330,10.1,43.2,86,0.00,,,0.00,VWS V14.01,2013-03-26 17:32:00,
2013-03-26 13:37:00,32.3,28.5,29.88,East,79,7.3,43.2,86,0.00,,,0.00,VWS V14.01,2013-03-26 17:37:00,
2013-03-26 13:42:00,32.9,28.2,29.88,NE,41,18.3,43.2,83,0.00,,,0.00,VWS V14.01,2013-03-26 17:42:00,
2013-03-26 13:47:00,32.9,28.1,29.88,East,96,17.7,43.2,82,0.00,,,0.00,VWS V14.01,2013-03-26 17:47:00,
2013-03-26 13:52:00,33.0,27.9,29.88,SSE,160,5.8,43.2,81,0.00,,,0.00,VWS V14.01,2013-03-26 17:52:00,
2013-03-26 13:58:00,33.2,28.6,29.88,NE,56,17.7,25.5,83,0.00,,,0.00,VWS V14.01,2013-03-26 17:58:00,
2013-03-26 14:03:00,33.1,28.3,29.88,East,94,26.7,30.6,82,0.00,,,0.00,VWS V14.01,2013-03-26 18:03:00,
2013-03-26 14:08:00,32.9,28.5,29.88,East,97,19.6,30.6,84,0.00,,,0.00,VWS V14.01,2013-03-26 18:08:00,
2013-03-26 14:13:00,32.8,28.1,29.88,East,80,12.7,30.6,83,0.00,,,0.00,VWS V14.01,2013-03-26 18:13:00,
2013-03-26 14:18:00,33.0,28.6,29.89,East,87,20.1,30.6,84,0.00,,,0.00,VWS V14.01,2013-03-26 18:18:00,
2013-03-26 14:23:00,32.8,28.6,29.89,SE,134,7.5,30.6,84,0.00,,,0.00,VWS V14.01,2013-03-26 18:23:00,
2013-03-26 14:29:00,32.4,28.2,29.89,NE,53,0.0,30.6,84,0.00,,,0.00,VWS V14.01,2013-03-26 18:29:00,
2013-03-26 14:34:00,32.0,28.0,29.88,NNE,25,12.1,31.3,85,0.00,,,0.00,VWS V14.01,2013-03-26 18:34:00,
2013-03-26 14:39:00,32.0,28.2,29.88,NNE,27,7.1,31.3,86,0.00,,,0.00,VWS V14.01,2013-03-26 18:39:00,
2013-03-26 14:44:00,32.1,28.3,29.88,NE,42,5.0,31.3,86,0.00,,,0.00,VWS V14.01,2013-03-26 18:44:00,
2013-03-26 14:50:00,32.3,28.5,29.89,NNE,21,17.0,31.3,86,0.01,,,0.01,VWS V14.01,2013-03-26 18:50:00,
2013-03-26 14:55:00,32.3,27.8,29.89,ENE,68,9.9,31.3,83,0.01,,,0.01,VWS V14.01,2013-03-26 18:55:00,
2013-03-26 15:00:00,32.1,27.9,29.89,NNE,14,5.4,27.2,84,0.01,,,0.01,VWS V14.01,2013-03-26 19:00:00,
2013-03-26 15:05:00,32.2,28.4,29.89,East,82,9.9,27.2,86,0.01,,,0.01,VWS V14.01,2013-03-26 19:05:00,
2013-03-26 15:10:00,32.4,28.4,29.89,NNW,332,5.4,27.4,85,0.01,,,0.01,VWS V14.01,2013-03-26 19:10:00,
2013-03-26 15:16:00,32.9,28.4,29.89,North,353,0.0,27.4,83,0.01,,,0.01,VWS V14.01,2013-03-26 19:16:00,
2013-03-26 15:21:00,33.5,28.5,29.89,NNE,22,3.9,27.4,82,0.01,,,0.01,VWS V14.01,2013-03-26 19:21:00,
2013-03-26 15:27:00,33.7,27.9,29.89,NE,38,8.2,27.4,79,0.01,,,0.01,VWS V14.01,2013-03-26 19:27:00,
2013-03-26 15:32:00,33.6,28.1,29.88,ENE,60,24.8,33.0,80,0.01,,,0.01,VWS V14.01,2013-03-26 19:32:00,
2013-03-26 15:37:00,33.8,28.4,29.89,NE,44,4.3,33.0,80,0.02,,,0.02,VWS V14.01,2013-03-26 19:37:00,
2013-03-26 15:43:00,33.7,28.1,29.89,NNW,336,1.9,33.0,80,0.02,,,0.02,VWS V14.01,2013-03-26 19:43:00,
2013-03-26 15:48:00,33.4,28.3,29.89,NW,312,6.5,33.0,81,0.02,,,0.02,VWS V14.01,2013-03-26 19:48:00,
2013-03-26 15:53:00,33.5,28.1,29.89,ENE,68,15.8,33.0,80,0.03,,,0.02,VWS V14.01,2013-03-26 19:53:00,
2013-03-26 15:58:00,33.7,28.1,29.88,North,4,6.3,19.6,80,0.02,,,0.03,VWS V14.01,2013-03-26 19:58:00,
2013-03-26 16:04:00,33.5,28.1,29.88,NE,37,7.1,28.3,80,0.02,,,0.03,VWS V14.01,2013-03-26 20:04:00,
2013-03-26 16:09:00,33.4,27.8,29.89,NE,41,14.4,36.0,80,0.02,,,0.03,VWS V14.01,2013-03-26 20:09:00,
2013-03-26 16:14:00,32.8,27.7,29.89,East,98,11.6,36.0,81,0.03,,,0.04,VWS V14.01,2013-03-26 20:14:00,
2013-03-26 16:19:00,32.7,28.0,29.89,NNE,17,10.1,36.0,83,0.03,,,0.04,VWS V14.01,2013-03-26 20:19:00,
2013-03-26 16:24:00,32.4,28.6,29.89,East,94,21.3,36.0,86,0.03,,,0.04,VWS V14.01,2013-03-26 20:24:00,
2013-03-26 16:29:00,32.1,29.0,29.89,ENE,72,17.7,36.0,88,0.04,,,0.05,VWS V14.01,2013-03-26 20:29:00,
2013-03-26 16:34:00,32.1,29.2,29.89,East,93,1.1,36.0,89,0.04,,,0.05,VWS V14.01,2013-03-26 20:34:00,
2013-03-26 16:40:00,32.0,29.1,29.89,ENE,62,15.5,36.0,89,0.04,,,0.05,VWS V14.01,2013-03-26 20:40:00,
2013-03-26 16:45:00,32.1,28.9,29.89,ENE,72,6.9,36.0,88,0.04,,,0.05,VWS V14.01,2013-03-26 20:45:00,
2013-03-26 16:50:00,32.0,28.9,29.89,North,357,9.1,36.0,88,0.05,,,0.06,VWS V14.01,2013-03-26 20:50:00,
2013-03-26 16:55:00,31.6,29.0,29.89,East,80,15.8,36.0,90,0.05,,,0.06,VWS V14.01,2013-03-26 20:55:00,
2013-03-26 17:00:00,30.9,28.9,29.89,ESE,118,10.4,32.2,92,0.03,,,0.06,VWS V14.01,2013-03-26 21:00:00,
2013-03-26 17:05:00,30.7,28.6,29.90,East,90,9.7,32.2,92,0.04,,,0.07,VWS V14.01,2013-03-26 21:05:00,
2013-03-26 17:11:00,30.3,28.6,29.90,NNE,21,13.6,33.9,94,0.04,,,0.07,VWS V14.01,2013-03-26 21:11:00,
2013-03-26 17:16:00,30.0,28.6,29.90,NNW,333,2.2,33.9,94,0.04,,,0.07,VWS V14.01,2013-03-26 21:16:00,
2013-03-26 17:21:00,29.8,28.5,29.90,NE,46,9.1,33.9,95,0.04,,,0.07,VWS V14.01,2013-03-26 21:21:00,
2013-03-26 17:26:00,29.5,28.2,29.90,ENE,72,11.0,38.6,95,0.04,,,0.07,VWS V14.01,2013-03-26 21:26:00,
2013-03-26 17:32:00,29.4,28.2,29.91,NNE,27,7.1,38.6,95,0.05,,,0.08,VWS V14.01,2013-03-26 21:32:00,
2013-03-26 17:37:00,29.5,28.4,29.91,NW,321,3.2,38.6,95,0.05,,,0.08,VWS V14.01,2013-03-26 21:37:00,
2013-03-26 17:42:00,29.5,28.4,29.91,NNE,27,12.9,38.6,95,0.05,,,0.08,VWS V14.01,2013-03-26 21:42:00,
2013-03-26 17:47:00,29.5,28.4,29.91,NE,37,0.0,38.6,96,0.05,,,0.08,VWS V14.01,2013-03-26 21:47:00,
2013-03-26 17:52:00,29.8,28.4,29.91,NNW,329,12.9,38.6,94,0.05,,,0.08,VWS V14.01,2013-03-26 21:52:00,
2013-03-26 17:58:00,29.8,27.9,29.91,NW,321,6.9,15.1,93,0.02,,,0.08,VWS V14.01,2013-03-26 21:58:00,
2013-03-26 18:03:00,30.0,27.7,29.91,North,3,0.0,28.5,91,0.03,,,0.09,VWS V14.01,2013-03-26 22:03:00,
2013-03-26 18:08:00,30.2,27.6,29.91,NE,44,3.9,28.5,90,0.03,,,0.09,VWS V14.01,2013-03-26 22:08:00,
2013-03-26 18:13:00,30.5,27.8,29.91,ENE,65,11.2,28.5,90,0.03,,,0.09,VWS V14.01,2013-03-26 22:13:00,
2013-03-26 18:18:00,30.9,27.7,29.91,ESE,104,17.7,28.5,88,0.03,,,0.09,VWS V14.01,2013-03-26 22:18:00,
2013-03-26 18:23:00,31.0,27.7,29.91,NNE,30,8.9,28.5,87,0.03,,,0.09,VWS V14.01,2013-03-26 22:23:00,
2013-03-26 18:29:00,31.2,27.2,29.92,NE,46,21.4,28.5,85,0.03,,,0.09,VWS V14.01,2013-03-26 22:29:00,
2013-03-26 18:34:00,31.2,27.3,29.92,NNE,31,0.0,28.5,85,0.03,,,0.09,VWS V14.01,2013-03-26 22:34:00,
2013-03-26 18:39:00,31.1,26.9,29.92,NE,35,18.1,28.5,84,0.03,,,0.09,VWS V14.01,2013-03-26 22:39:00,
2013-03-26 18:44:00,30.9,26.5,29.92,ESE,111,3.9,28.5,84,0.03,,,0.09,VWS V14.01,2013-03-26 22:44:00,
2013-03-26 18:49:00,30.9,27.0,29.92,NE,35,5.4,28.5,85,0.03,,,0.09,VWS V14.01,2013-03-26 22:49:00,
2013-03-26 18:54:00,30.8,27.3,29.92,NNW,342,0.0,28.5,87,0.04,,,0.10,VWS V14.01,2013-03-26 22:54:00,
2013-03-26 18:59:00,30.8,27.5,29.92,NW,308,6.9,19.4,87,0.02,,,0.10,VWS V14.01,2013-03-26 22:59:00,
2013-03-26 19:05:00,30.6,27.5,29.92,North,7,4.1,24.8,88,0.02,,,0.10,VWS V14.01,2013-03-26 23:05:00,
2013-03-26 19:10:00,30.6,27.7,29.93,North,8,4.3,24.8,89,0.02,,,0.10,VWS V14.01,2013-03-26 23:10:00,
2013-03-26 19:15:00,30.5,28.1,29.92,ENE,65,3.0,28.7,91,0.02,,,0.10,VWS V14.01,2013-03-26 23:15:00,
2013-03-26 19:20:00,30.2,28.1,29.93,NNE,32,2.1,28.7,92,0.02,,,0.10,VWS V14.01,2013-03-26 23:20:00,
2013-03-26 19:25:00,29.9,28.2,29.93,NNE,15,8.0,28.7,93,0.02,,,0.10,VWS V14.01,2013-03-26 23:25:00,
2013-03-26 19:31:00,29.8,28.2,29.93,South,170,8.6,28.7,94,0.02,,,0.10,VWS V14.01,2013-03-26 23:31:00,
2013-03-26 19:36:00,29.7,28.2,29.93,NNE,22,4.3,28.9,94,0.02,,,0.10,VWS V14.01,2013-03-26 23:36:00,
2013-03-26 19:42:00,29.6,28.2,29.94,NNE,32,9.5,33.0,95,0.02,,,0.10,VWS V14.01,2013-03-26 23:42:00,
2013-03-26 19:47:00,29.5,28.2,29.94,East,80,11.9,33.0,95,0.02,,,0.10,VWS V14.01,2013-03-26 23:47:00,
2013-03-26 19:52:00,29.5,28.3,29.94,ENE,66,0.9,33.6,95,0.02,,,0.10,VWS V14.01,2013-03-26 23:52:00,
2013-03-26 19:57:00,29.5,28.4,29.94,North,8,0.0,20.9,95,0.00,,,0.10,VWS V14.01,2013-03-26 23:57:00,
2013-03-26 20:02:00,29.4,28.2,29.94,ENE,66,7.5,29.3,95,0.00,,,0.10,VWS V14.01,2013-03-27 00:02:00,
2013-03-26 20:07:00,29.3,28.1,29.94,NE,37,11.4,29.5,95,0.00,,,0.10,VWS V14.01,2013-03-27 00:07:00,
2013-03-26 20:13:00,29.2,28.0,29.95,SE,134,20.7,30.6,95,0.00,,,0.10,VWS V14.01,2013-03-27 00:13:00,
2013-03-26 20:18:00,29.2,28.0,29.95,NE,39,11.0,30.8,95,0.00,,,0.10,VWS V14.01,2013-03-27 00:18:00,
2013-03-26 20:23:00,29.2,28.0,29.95,ESE,121,3.9,30.8,95,0.00,,,0.10,VWS V14.01,2013-03-27 00:23:00,
2013-03-26 20:28:00,29.2,28.0,29.95,ENE,72,0.0,30.8,95,0.00,,,0.10,VWS V14.01,2013-03-27 00:28:00,
2013-03-26 20:33:00,29.2,28.0,29.96,NE,39,0.0,30.8,95,0.00,,,0.10,VWS V14.01,2013-03-27 00:33:00,
2013-03-26 20:39:00,29.3,28.1,29.96,NW,323,0.0,30.8,95,0.00,,,0.10,VWS V14.01,2013-03-27 00:39:00,
2013-03-26 20:44:00,29.3,28.0,29.96,ESE,111,9.9,30.8,95,0.00,,,0.10,VWS V14.01,2013-03-27 00:44:00,
2013-03-26 20:49:00,29.3,28.1,29.96,NW,304,10.6,30.8,95,0.00,,,0.10,VWS V14.01,2013-03-27 00:49:00,
2013-03-26 20:54:00,29.3,28.0,29.96,SE,131,21.6,30.8,95,0.00,,,0.10,VWS V14.01,2013-03-27 00:54:00,
2013-03-26 20:59:00,29.3,28.1,29.97,North,6,5.0,23.5,95,0.00,,,0.10,VWS V14.01,2013-03-27 00:59:00,
2013-03-26 21:04:00,29.1,28.0,29.97,ESE,108,19.2,23.5,96,0.00,,,0.10,VWS V14.01,2013-03-27 01:04:00,
2013-03-26 21:09:00,29.1,28.0,29.97,South,184,5.6,30.6,96,0.00,,,0.10,VWS V14.01,2013-03-27 01:09:00,
2013-03-26 21:14:00,29.2,28.1,29.97,NE,34,0.0,30.6,96,0.00,,,0.10,VWS V14.01,2013-03-27 01:14:00,
2013-03-26 21:19:00,29.1,28.0,29.97,NE,55,13.4,30.6,96,0.00,,,0.10,VWS V14.01,2013-03-27 01:19:00,
2013-03-26 21:25:00,29.0,27.9,29.97,NNW,338,12.5,39.3,96,0.00,,,0.10,VWS V14.01,2013-03-27 01:25:00,
2013-03-26 21:30:00,29.0,28.0,29.97,NE,52,11.7,39.3,96,0.00,,,0.10,VWS V14.01,2013-03-27 01:30:00,
2013-03-26 21:35:00,29.0,28.0,29.98,NNW,339,6.7,39.3,96,0.00,,,0.10,VWS V14.01,2013-03-27 01:35:00,
2013-03-26 21:40:00,28.8,27.8,29.98,ESE,108,11.0,39.3,96,0.00,,,0.10,VWS V14.01,2013-03-27 01:40:00,
2013-03-26 21:45:00,28.9,27.9,29.98,North,6,18.1,39.3,96,0.00,,,0.10,VWS V14.01,2013-03-27 01:45:00,
2013-03-26 21:50:00,28.8,27.9,29.98,North,359,4.5,39.3,96,0.00,,,0.10,VWS V14.01,2013-03-27 01:50:00,
2013-03-26 21:56:00,28.9,27.9,29.98,North,3,0.0,39.3,96,0.00,,,0.10,VWS V14.01,2013-03-27 01:56:00,
2013-03-26 22:01:00,28.9,28.0,29.99,ENE,65,6.3,24.0,96,0.00,,,0.10,VWS V14.01,2013-03-27 02:01:00,
2013-03-26 22:06:00,29.0,28.1,29.99,North,359,3.0,24.8,96,0.00,,,0.10,VWS V14.01,2013-03-27 02:06:00,
2013-03-26 22:12:00,28.8,27.9,29.99,NE,55,4.1,31.3,96,0.00,,,0.10,VWS V14.01,2013-03-27 02:12:00,
2013-03-26 22:17:00,28.7,27.7,29.99,NNW,335,12.3,31.3,96,0.00,,,0.10,VWS V14.01,2013-03-27 02:17:00,
2013-03-26 22:22:00,28.8,27.8,29.99,North,11,0.0,31.3,96,0.00,,,0.10,VWS V14.01,2013-03-27 02:22:00,
2013-03-26 22:27:00,28.7,27.7,29.99,North,359,2.8,44.6,96,0.00,,,0.10,VWS V14.01,2013-03-27 02:27:00,
2013-03-26 22:32:00,28.7,27.6,29.99,ENE,62,9.7,44.6,96,0.00,,,0.10,VWS V14.01,2013-03-27 02:32:00,
2013-03-26 22:38:00,28.7,27.7,29.99,NE,38,9.5,44.6,96,0.00,,,0.10,VWS V14.01,2013-03-27 02:38:00,
2013-03-26 22:43:00,28.7,27.7,29.99,NNE,15,10.8,44.6,96,0.00,,,0.10,VWS V14.01,2013-03-27 02:43:00,
2013-03-26 22:48:00,28.8,27.8,29.99,ENE,65,12.3,44.6,96,0.00,,,0.10,VWS V14.01,2013-03-27 02:48:00,
2013-03-26 22:53:00,28.7,27.5,29.99,NNE,18,8.9,44.6,95,0.00,,,0.10,VWS V14.01,2013-03-27 02:53:00,
2013-03-26 22:58:00,28.6,27.5,29.99,NNW,347,2.8,19.9,96,0.00,,,0.10,VWS V14.01,2013-03-27 02:58:00,
2013-03-26 23:04:00,28.6,27.6,29.99,SSE,148,12.5,24.4,96,0.00,,,0.10,VWS V14.01,2013-03-27 03:04:00,
2013-03-26 23:09:00,28.4,27.3,29.99,North,359,13.6,26.5,96,0.00,,,0.10,VWS V14.01,2013-03-27 03:09:00,
2013-03-26 23:14:00,28.5,27.5,29.99,East,94,12.1,29.5,96,0.00,,,0.10,VWS V14.01,2013-03-27 03:14:00,
2013-03-26 23:19:00,28.5,27.6,29.99,NW,326,6.0,29.5,96,0.00,,,0.10,VWS V14.01,2013-03-27 03:19:00,
2013-03-26 23:24:00,28.3,27.4,29.99,ENE,76,0.0,29.5,96,0.00,,,0.10,VWS V14.01,2013-03-27 03:24:00,
2013-03-26 23:29:00,28.5,27.6,29.99,NE,45,9.5,29.5,96,0.00,,,0.10,VWS V14.01,2013-03-27 03:29:00,
2013-03-26 23:35:00,28.3,27.5,29.99,NW,319,3.4,29.5,97,0.00,,,0.10,VWS V14.01,2013-03-27 03:35:00,
2013-03-26 23:40:00,28.3,27.5,29.99,NNE,31,2.1,29.5,97,0.00,,,0.10,VWS V14.01,2013-03-27 03:40:00,
2013-03-26 23:45:00,28.0,27.1,29.99,East,82,14.5,29.5,96,0.00,,,0.10,VWS V14.01,2013-03-27 03:45:00,
2013-03-26 23:50:00,27.9,27.0,29.99,NNE,31,0.0,29.5,96,0.00,,,0.10,VWS V14.01,2013-03-27 03:50:00,
2013-03-26 23:55:00,27.8,26.9,29.99,NE,34,9.9,29.5,96,0.00,,,0.10,VWS V14.01,2013-03-27 03:55:00,